sensor_id;sensor_type;location;lat;lon;timestamp;P1;durP1;ratioP1;P2;durP2;ratioP2
22026;SDS011;11177;50.966;10.070;2023-03-13T00:02:24;17.58;;;4.20;;
22026;SDS011;11177;50.966;10.070;2023-03-13T00:04:50;12.88;;;3.58;;
22026;SDS011;11177;50.966;10.070;2023-03-13T00:07:17;12.93;;;3.30;;
22026;SDS011;11177;50.966;10.070;2023-03-13T00:09:44;14.10;;;3.72;;
22026;SDS011;11177;50.966;10.070;2023-03-13T00:12:11;19.92;;;4.35;;
22026;SDS011;11177;50.966;10.070;2023-03-13T00:14:38;19.83;;;3.75;;
22026;SDS011;11177;50.966;10.070;2023-03-13T00:17:05;17.88;;;3.85;;
22026;SDS011;11177;50.966;10.070;2023-03-13T00:19:32;16.00;;;3.90;;
22026;SDS011;11177;50.966;10.070;2023-03-13T00:21:59;11.90;;;3.17;;
22026;SDS011;11177;50.966;10.070;2023-03-13T00:24:26;17.23;;;3.97;;
22026;SDS011;11177;50.966;10.070;2023-03-13T00:26:54;17.05;;;4.25;;
22026;SDS011;11177;50.966;10.070;2023-03-13T00:29:22;11.52;;;4.40;;
22026;SDS011;11177;50.966;10.070;2023-03-13T00:31:48;18.63;;;4.85;;
22026;SDS011;11177;50.966;10.070;2023-03-13T00:34:15;11.85;;;3.10;;
22026;SDS011;11177;50.966;10.070;2023-03-13T00:36:42;17.52;;;3.38;;
22026;SDS011;11177;50.966;10.070;2023-03-13T00:39:09;15.48;;;3.63;;
22026;SDS011;11177;50.966;10.070;2023-03-13T00:41:36;15.90;;;3.58;;
22026;SDS011;11177;50.966;10.070;2023-03-13T00:44:03;13.52;;;3.25;;
22026;SDS011;11177;50.966;10.070;2023-03-13T00:46:29;16.27;;;3.63;;
22026;SDS011;11177;50.966;10.070;2023-03-13T00:48:57;17.52;;;3.25;;
22026;SDS011;11177;50.966;10.070;2023-03-13T00:51:24;12.80;;;3.30;;
22026;SDS011;11177;50.966;10.070;2023-03-13T00:53:53;14.38;;;3.20;;
22026;SDS011;11177;50.966;10.070;2023-03-13T00:56:20;15.52;;;3.70;;
22026;SDS011;11177;50.966;10.070;2023-03-13T00:58:48;13.57;;;3.38;;
22026;SDS011;11177;50.966;10.070;2023-03-13T01:01:17;16.33;;;3.22;;
22026;SDS011;11177;50.966;10.070;2023-03-13T01:03:53;12.65;;;3.47;;
22026;SDS011;11177;50.966;10.070;2023-03-13T01:06:26;20.80;;;3.60;;
22026;SDS011;11177;50.966;10.070;2023-03-13T01:08:54;14.48;;;3.10;;
22026;SDS011;11177;50.966;10.070;2023-03-13T01:11:22;15.73;;;3.17;;
22026;SDS011;11177;50.966;10.070;2023-03-13T01:13:54;18.50;;;3.20;;
22026;SDS011;11177;50.966;10.070;2023-03-13T01:16:26;17.25;;;3.35;;
22026;SDS011;11177;50.966;10.070;2023-03-13T01:18:55;20.65;;;3.33;;
22026;SDS011;11177;50.966;10.070;2023-03-13T01:21:24;14.48;;;2.83;;
22026;SDS011;11177;50.966;10.070;2023-03-13T01:23:51;16.10;;;3.22;;
22026;SDS011;11177;50.966;10.070;2023-03-13T01:26:19;19.27;;;3.38;;
22026;SDS011;11177;50.966;10.070;2023-03-13T01:28:47;21.83;;;3.53;;
22026;SDS011;11177;50.966;10.070;2023-03-13T01:31:21;16.35;;;3.15;;
22026;SDS011;11177;50.966;10.070;2023-03-13T01:33:50;15.10;;;3.50;;
22026;SDS011;11177;50.966;10.070;2023-03-13T01:36:19;17.75;;;3.20;;
22026;SDS011;11177;50.966;10.070;2023-03-13T01:38:47;28.73;;;5.15;;
22026;SDS011;11177;50.966;10.070;2023-03-13T01:41:15;21.52;;;3.72;;
22026;SDS011;11177;50.966;10.070;2023-03-13T01:43:42;20.48;;;3.80;;
22026;SDS011;11177;50.966;10.070;2023-03-13T01:46:11;23.05;;;4.55;;
22026;SDS011;11177;50.966;10.070;2023-03-13T01:48:49;21.15;;;3.95;;
22026;SDS011;11177;50.966;10.070;2023-03-13T01:51:20;26.08;;;4.20;;
22026;SDS011;11177;50.966;10.070;2023-03-13T01:54:12;22.58;;;4.43;;
22026;SDS011;11177;50.966;10.070;2023-03-13T01:56:47;31.17;;;5.35;;
22026;SDS011;11177;50.966;10.070;2023-03-13T01:59:26;33.75;;;5.82;;
22026;SDS011;11177;50.966;10.070;2023-03-13T02:01:58;33.22;;;5.18;;
22026;SDS011;11177;50.966;10.070;2023-03-13T02:04:26;30.55;;;5.40;;
22026;SDS011;11177;50.966;10.070;2023-03-13T02:06:58;29.55;;;5.07;;
22026;SDS011;11177;50.966;10.070;2023-03-13T02:09:27;27.27;;;4.57;;
22026;SDS011;11177;50.966;10.070;2023-03-13T02:12:01;22.80;;;3.72;;
22026;SDS011;11177;50.966;10.070;2023-03-13T02:14:31;24.90;;;3.28;;
22026;SDS011;11177;50.966;10.070;2023-03-13T02:16:59;23.73;;;3.78;;
22026;SDS011;11177;50.966;10.070;2023-03-13T02:19:29;21.90;;;4.03;;
22026;SDS011;11177;50.966;10.070;2023-03-13T02:22:15;20.30;;;3.20;;
22026;SDS011;11177;50.966;10.070;2023-03-13T02:28:13;19.65;;;3.33;;
22026;SDS011;11177;50.966;10.070;2023-03-13T02:30:46;21.92;;;3.80;;
22026;SDS011;11177;50.966;10.070;2023-03-13T02:33:14;23.58;;;3.72;;
22026;SDS011;11177;50.966;10.070;2023-03-13T02:35:42;22.63;;;3.67;;
22026;SDS011;11177;50.966;10.070;2023-03-13T02:38:10;22.55;;;3.22;;
22026;SDS011;11177;50.966;10.070;2023-03-13T02:40:41;25.63;;;3.53;;
22026;SDS011;11177;50.966;10.070;2023-03-13T02:43:16;19.80;;;3.40;;
22026;SDS011;11177;50.966;10.070;2023-03-13T02:48:39;20.02;;;3.58;;
22026;SDS011;11177;50.966;10.070;2023-03-13T02:51:10;22.88;;;3.88;;
22026;SDS011;11177;50.966;10.070;2023-03-13T02:53:40;20.13;;;3.40;;
22026;SDS011;11177;50.966;10.070;2023-03-13T02:56:07;23.27;;;3.60;;
22026;SDS011;11177;50.966;10.070;2023-03-13T02:58:34;15.43;;;2.78;;
22026;SDS011;11177;50.966;10.070;2023-03-13T03:01:15;21.30;;;3.78;;
22026;SDS011;11177;50.966;10.070;2023-03-13T03:03:42;21.77;;;3.05;;
22026;SDS011;11177;50.966;10.070;2023-03-13T03:06:09;20.88;;;3.25;;
22026;SDS011;11177;50.966;10.070;2023-03-13T03:08:35;15.50;;;3.00;;
22026;SDS011;11177;50.966;10.070;2023-03-13T03:11:04;21.05;;;3.22;;
22026;SDS011;11177;50.966;10.070;2023-03-13T03:13:31;14.48;;;2.83;;
22026;SDS011;11177;50.966;10.070;2023-03-13T03:15:58;13.00;;;3.25;;
22026;SDS011;11177;50.966;10.070;2023-03-13T03:18:25;16.80;;;3.00;;
22026;SDS011;11177;50.966;10.070;2023-03-13T03:20:52;21.35;;;3.30;;
22026;SDS011;11177;50.966;10.070;2023-03-13T03:23:19;19.23;;;3.08;;
22026;SDS011;11177;50.966;10.070;2023-03-13T03:25:46;15.57;;;2.88;;
22026;SDS011;11177;50.966;10.070;2023-03-13T03:28:13;20.65;;;3.03;;
22026;SDS011;11177;50.966;10.070;2023-03-13T03:30:39;15.85;;;3.22;;
22026;SDS011;11177;50.966;10.070;2023-03-13T03:33:06;17.02;;;2.85;;
22026;SDS011;11177;50.966;10.070;2023-03-13T03:35:33;17.95;;;2.90;;
22026;SDS011;11177;50.966;10.070;2023-03-13T03:38:04;15.85;;;3.15;;
22026;SDS011;11177;50.966;10.070;2023-03-13T03:40:30;15.30;;;3.25;;
22026;SDS011;11177;50.966;10.070;2023-03-13T03:42:57;17.30;;;2.95;;
22026;SDS011;11177;50.966;10.070;2023-03-13T03:45:24;26.17;;;3.42;;
22026;SDS011;11177;50.966;10.070;2023-03-13T03:47:51;13.32;;;2.75;;
22026;SDS011;11177;50.966;10.070;2023-03-13T03:50:17;16.65;;;3.15;;
22026;SDS011;11177;50.966;10.070;2023-03-13T03:52:44;11.25;;;2.90;;
22026;SDS011;11177;50.966;10.070;2023-03-13T03:55:10;15.38;;;3.17;;
22026;SDS011;11177;50.966;10.070;2023-03-13T03:57:37;12.82;;;2.50;;
22026;SDS011;11177;50.966;10.070;2023-03-13T04:00:04;16.17;;;2.60;;
22026;SDS011;11177;50.966;10.070;2023-03-13T04:02:33;13.30;;;2.47;;
22026;SDS011;11177;50.966;10.070;2023-03-13T04:04:59;14.38;;;2.60;;
22026;SDS011;11177;50.966;10.070;2023-03-13T04:07:26;18.45;;;2.42;;
22026;SDS011;11177;50.966;10.070;2023-03-13T04:09:53;12.43;;;2.50;;
22026;SDS011;11177;50.966;10.070;2023-03-13T04:12:20;15.48;;;2.80;;
22026;SDS011;11177;50.966;10.070;2023-03-13T04:14:47;12.73;;;2.50;;
22026;SDS011;11177;50.966;10.070;2023-03-13T04:17:13;11.88;;;2.45;;
22026;SDS011;11177;50.966;10.070;2023-03-13T04:19:40;12.45;;;2.30;;
22026;SDS011;11177;50.966;10.070;2023-03-13T04:22:07;15.27;;;2.92;;
22026;SDS011;11177;50.966;10.070;2023-03-13T04:24:34;13.00;;;2.83;;
22026;SDS011;11177;50.966;10.070;2023-03-13T04:27:01;11.27;;;2.30;;
22026;SDS011;11177;50.966;10.070;2023-03-13T04:29:28;9.70;;;2.45;;
22026;SDS011;11177;50.966;10.070;2023-03-13T04:31:55;11.40;;;2.58;;
22026;SDS011;11177;50.966;10.070;2023-03-13T04:34:22;11.80;;;2.53;;
22026;SDS011;11177;50.966;10.070;2023-03-13T04:36:49;20.02;;;2.97;;
22026;SDS011;11177;50.966;10.070;2023-03-13T04:39:15;16.95;;;3.10;;
22026;SDS011;11177;50.966;10.070;2023-03-13T04:41:42;16.52;;;2.67;;
22026;SDS011;11177;50.966;10.070;2023-03-13T04:44:09;17.13;;;2.65;;
22026;SDS011;11177;50.966;10.070;2023-03-13T04:46:35;15.85;;;2.90;;
22026;SDS011;11177;50.966;10.070;2023-03-13T04:49:02;11.82;;;2.50;;
22026;SDS011;11177;50.966;10.070;2023-03-13T04:51:29;19.00;;;3.20;;
22026;SDS011;11177;50.966;10.070;2023-03-13T04:53:56;9.20;;;2.28;;
22026;SDS011;11177;50.966;10.070;2023-03-13T04:56:23;12.65;;;2.33;;
22026;SDS011;11177;50.966;10.070;2023-03-13T04:59:08;11.30;;;2.58;;
22026;SDS011;11177;50.966;10.070;2023-03-13T05:01:36;14.95;;;2.70;;
22026;SDS011;11177;50.966;10.070;2023-03-13T05:04:03;11.50;;;2.20;;
22026;SDS011;11177;50.966;10.070;2023-03-13T05:06:49;10.82;;;2.08;;
22026;SDS011;11177;50.966;10.070;2023-03-13T05:09:41;11.45;;;2.08;;
22026;SDS011;11177;50.966;10.070;2023-03-13T05:12:33;13.13;;;2.08;;
22026;SDS011;11177;50.966;10.070;2023-03-13T05:15:25;6.93;;;1.80;;
22026;SDS011;11177;50.966;10.070;2023-03-13T05:18:17;9.75;;;2.00;;
22026;SDS011;11177;50.966;10.070;2023-03-13T05:21:09;9.75;;;2.00;;
22026;SDS011;11177;50.966;10.070;2023-03-13T05:24:01;9.73;;;2.10;;
22026;SDS011;11177;50.966;10.070;2023-03-13T05:26:53;10.52;;;1.88;;
22026;SDS011;11177;50.966;10.070;2023-03-13T05:29:45;10.02;;;2.10;;
22026;SDS011;11177;50.966;10.070;2023-03-13T05:32:37;7.53;;;1.90;;
22026;SDS011;11177;50.966;10.070;2023-03-13T05:35:29;9.25;;;2.03;;
22026;SDS011;11177;50.966;10.070;2023-03-13T05:38:21;5.88;;;1.95;;
22026;SDS011;11177;50.966;10.070;2023-03-13T05:41:13;8.48;;;1.63;;
22026;SDS011;11177;50.966;10.070;2023-03-13T05:44:05;5.38;;;1.38;;
22026;SDS011;11177;50.966;10.070;2023-03-13T05:46:57;9.27;;;1.60;;
22026;SDS011;11177;50.966;10.070;2023-03-13T05:49:29;5.40;;;1.42;;
22026;SDS011;11177;50.966;10.070;2023-03-13T05:51:56;8.55;;;1.77;;
22026;SDS011;11177;50.966;10.070;2023-03-13T05:54:22;7.00;;;1.80;;
22026;SDS011;11177;50.966;10.070;2023-03-13T05:56:49;5.35;;;1.52;;
22026;SDS011;11177;50.966;10.070;2023-03-13T05:59:17;7.65;;;1.40;;
22026;SDS011;11177;50.966;10.070;2023-03-13T06:01:44;4.07;;;1.48;;
22026;SDS011;11177;50.966;10.070;2023-03-13T06:04:10;8.88;;;1.73;;
22026;SDS011;11177;50.966;10.070;2023-03-13T06:06:37;5.47;;;1.33;;
22026;SDS011;11177;50.966;10.070;2023-03-13T06:09:04;6.78;;;1.85;;
22026;SDS011;11177;50.966;10.070;2023-03-13T06:11:31;5.20;;;1.50;;
22026;SDS011;11177;50.966;10.070;2023-03-13T06:13:58;7.38;;;2.00;;
22026;SDS011;11177;50.966;10.070;2023-03-13T06:16:25;8.23;;;1.77;;
22026;SDS011;11177;50.966;10.070;2023-03-13T06:18:52;8.65;;;1.65;;
22026;SDS011;11177;50.966;10.070;2023-03-13T06:21:18;4.32;;;1.75;;
22026;SDS011;11177;50.966;10.070;2023-03-13T06:23:45;4.97;;;1.42;;
22026;SDS011;11177;50.966;10.070;2023-03-13T06:26:12;4.35;;;1.40;;
22026;SDS011;11177;50.966;10.070;2023-03-13T06:28:39;3.78;;;1.45;;
22026;SDS011;11177;50.966;10.070;2023-03-13T06:31:07;3.53;;;1.50;;
22026;SDS011;11177;50.966;10.070;2023-03-13T06:33:34;2.75;;;1.38;;
22026;SDS011;11177;50.966;10.070;2023-03-13T06:36:01;6.85;;;1.50;;
22026;SDS011;11177;50.966;10.070;2023-03-13T06:38:29;5.30;;;1.52;;
22026;SDS011;11177;50.966;10.070;2023-03-13T06:41:01;3.10;;;1.33;;
22026;SDS011;11177;50.966;10.070;2023-03-13T06:43:28;2.83;;;1.25;;
22026;SDS011;11177;50.966;10.070;2023-03-13T06:45:55;3.97;;;1.52;;
22026;SDS011;11177;50.966;10.070;2023-03-13T06:48:22;4.45;;;1.60;;
22026;SDS011;11177;50.966;10.070;2023-03-13T06:50:48;3.72;;;1.50;;
22026;SDS011;11177;50.966;10.070;2023-03-13T06:53:17;4.43;;;1.40;;
22026;SDS011;11177;50.966;10.070;2023-03-13T06:55:45;6.85;;;2.03;;
22026;SDS011;11177;50.966;10.070;2023-03-13T06:58:14;4.80;;;1.80;;
22026;SDS011;11177;50.966;10.070;2023-03-13T07:00:57;3.13;;;1.52;;
22026;SDS011;11177;50.966;10.070;2023-03-13T07:03:24;2.03;;;1.23;;
22026;SDS011;11177;50.966;10.070;2023-03-13T07:05:58;4.82;;;1.30;;
22026;SDS011;11177;50.966;10.070;2023-03-13T07:08:25;2.60;;;1.30;;
22026;SDS011;11177;50.966;10.070;2023-03-13T07:10:52;1.70;;;1.15;;
22026;SDS011;11177;50.966;10.070;2023-03-13T07:13:20;3.20;;;1.27;;
22026;SDS011;11177;50.966;10.070;2023-03-13T07:15:49;2.60;;;1.45;;
22026;SDS011;11177;50.966;10.070;2023-03-13T07:18:17;3.30;;;1.20;;
22026;SDS011;11177;50.966;10.070;2023-03-13T07:20:43;2.35;;;1.20;;
22026;SDS011;11177;50.966;10.070;2023-03-13T07:23:10;3.03;;;1.30;;
22026;SDS011;11177;50.966;10.070;2023-03-13T07:25:37;3.00;;;1.20;;
22026;SDS011;11177;50.966;10.070;2023-03-13T07:28:04;4.32;;;1.25;;
22026;SDS011;11177;50.966;10.070;2023-03-13T07:30:31;9.68;;;1.50;;
22026;SDS011;11177;50.966;10.070;2023-03-13T07:32:58;2.20;;;1.13;;
22026;SDS011;11177;50.966;10.070;2023-03-13T07:35:24;3.88;;;1.38;;
22026;SDS011;11177;50.966;10.070;2023-03-13T07:37:51;3.17;;;1.40;;
22026;SDS011;11177;50.966;10.070;2023-03-13T07:40:18;3.40;;;1.23;;
22026;SDS011;11177;50.966;10.070;2023-03-13T07:42:45;1.90;;;1.23;;
22026;SDS011;11177;50.966;10.070;2023-03-13T07:45:11;3.63;;;1.35;;
22026;SDS011;11177;50.966;10.070;2023-03-13T07:47:38;3.90;;;1.30;;
22026;SDS011;11177;50.966;10.070;2023-03-13T07:50:05;2.50;;;1.30;;
22026;SDS011;11177;50.966;10.070;2023-03-13T07:52:33;5.72;;;1.55;;
22026;SDS011;11177;50.966;10.070;2023-03-13T07:55:00;3.75;;;1.52;;
22026;SDS011;11177;50.966;10.070;2023-03-13T07:57:27;3.80;;;1.70;;
22026;SDS011;11177;50.966;10.070;2023-03-13T07:59:53;4.28;;;1.75;;
22026;SDS011;11177;50.966;10.070;2023-03-13T08:02:20;5.82;;;1.80;;
22026;SDS011;11177;50.966;10.070;2023-03-13T08:04:50;3.85;;;1.83;;
22026;SDS011;11177;50.966;10.070;2023-03-13T08:07:18;2.55;;;1.38;;
22026;SDS011;11177;50.966;10.070;2023-03-13T08:09:44;2.78;;;1.52;;
22026;SDS011;11177;50.966;10.070;2023-03-13T08:12:11;2.80;;;1.50;;
22026;SDS011;11177;50.966;10.070;2023-03-13T08:14:38;2.50;;;1.85;;
22026;SDS011;11177;50.966;10.070;2023-03-13T08:17:05;2.33;;;1.70;;
22026;SDS011;11177;50.966;10.070;2023-03-13T08:19:33;2.03;;;1.85;;
22026;SDS011;11177;50.966;10.070;2023-03-13T08:22:01;8.05;;;2.17;;
22026;SDS011;11177;50.966;10.070;2023-03-13T08:24:27;4.40;;;2.03;;
22026;SDS011;11177;50.966;10.070;2023-03-13T08:26:54;6.72;;;2.97;;
22026;SDS011;11177;50.966;10.070;2023-03-13T08:29:21;2.95;;;2.20;;
22026;SDS011;11177;50.966;10.070;2023-03-13T08:31:48;3.22;;;2.17;;
22026;SDS011;11177;50.966;10.070;2023-03-13T08:34:16;3.42;;;2.10;;
22026;SDS011;11177;50.966;10.070;2023-03-13T08:36:44;3.53;;;2.20;;
22026;SDS011;11177;50.966;10.070;2023-03-13T08:39:12;3.35;;;2.25;;
22026;SDS011;11177;50.966;10.070;2023-03-13T08:41:40;1.90;;;1.80;;
22026;SDS011;11177;50.966;10.070;2023-03-13T08:44:12;2.92;;;2.05;;
22026;SDS011;11177;50.966;10.070;2023-03-13T08:46:40;3.95;;;2.08;;
22026;SDS011;11177;50.966;10.070;2023-03-13T08:49:07;2.42;;;2.10;;
22026;SDS011;11177;50.966;10.070;2023-03-13T08:51:34;3.15;;;2.00;;
22026;SDS011;11177;50.966;10.070;2023-03-13T08:54:01;2.65;;;1.92;;
22026;SDS011;11177;50.966;10.070;2023-03-13T08:56:29;3.13;;;1.73;;
22026;SDS011;11177;50.966;10.070;2023-03-13T08:58:59;2.03;;;1.70;;
22026;SDS011;11177;50.966;10.070;2023-03-13T09:01:27;2.47;;;1.80;;
22026;SDS011;11177;50.966;10.070;2023-03-13T09:03:55;3.88;;;1.80;;
22026;SDS011;11177;50.966;10.070;2023-03-13T09:06:25;1.98;;;1.60;;
22026;SDS011;11177;50.966;10.070;2023-03-13T09:08:51;2.08;;;1.88;;
22026;SDS011;11177;50.966;10.070;2023-03-13T09:11:19;2.08;;;1.70;;
22026;SDS011;11177;50.966;10.070;2023-03-13T09:13:48;2.65;;;1.70;;
22026;SDS011;11177;50.966;10.070;2023-03-13T09:16:16;2.00;;;1.80;;
22026;SDS011;11177;50.966;10.070;2023-03-13T09:18:48;3.15;;;1.73;;
22026;SDS011;11177;50.966;10.070;2023-03-13T09:21:16;2.13;;;1.83;;
22026;SDS011;11177;50.966;10.070;2023-03-13T09:23:45;2.22;;;1.75;;
22026;SDS011;11177;50.966;10.070;2023-03-13T09:26:13;2.17;;;1.70;;
22026;SDS011;11177;50.966;10.070;2023-03-13T09:28:41;2.28;;;1.90;;
22026;SDS011;11177;50.966;10.070;2023-03-13T09:31:11;2.20;;;1.83;;
22026;SDS011;11177;50.966;10.070;2023-03-13T09:33:40;2.03;;;1.80;;
22026;SDS011;11177;50.966;10.070;2023-03-13T09:36:08;1.85;;;1.60;;
22026;SDS011;11177;50.966;10.070;2023-03-13T09:38:35;2.10;;;1.80;;
22026;SDS011;11177;50.966;10.070;2023-03-13T09:41:05;4.25;;;2.40;;
22026;SDS011;11177;50.966;10.070;2023-03-13T09:46:27;4.20;;;2.40;;
22026;SDS011;11177;50.966;10.070;2023-03-13T09:49:22;3.72;;;2.20;;
22026;SDS011;11177;50.966;10.070;2023-03-13T09:52:30;2.28;;;2.08;;
22026;SDS011;11177;50.966;10.070;2023-03-13T09:55:03;3.80;;;2.00;;
22026;SDS011;11177;50.966;10.070;2023-03-13T09:57:50;2.50;;;2.00;;
22026;SDS011;11177;50.966;10.070;2023-03-13T10:00:38;2.95;;;1.80;;
22026;SDS011;11177;50.966;10.070;2023-03-13T10:05:50;2.15;;;1.95;;
22026;SDS011;11177;50.966;10.070;2023-03-13T10:08:19;2.67;;;2.00;;
22026;SDS011;11177;50.966;10.070;2023-03-13T10:11:02;3.67;;;2.00;;
22026;SDS011;11177;50.966;10.070;2023-03-13T10:13:33;2.72;;;1.90;;
22026;SDS011;11177;50.966;10.070;2023-03-13T10:16:46;1.98;;;1.70;;
22026;SDS011;11177;50.966;10.070;2023-03-13T10:19:11;3.83;;;1.60;;
22026;SDS011;11177;50.966;10.070;2023-03-13T10:21:41;2.55;;;1.50;;
22026;SDS011;11177;50.966;10.070;2023-03-13T10:24:21;3.53;;;1.50;;
22026;SDS011;11177;50.966;10.070;2023-03-13T10:26:58;3.47;;;1.50;;
22026;SDS011;11177;50.966;10.070;2023-03-13T10:29:26;3.38;;;1.38;;
22026;SDS011;11177;50.966;10.070;2023-03-13T10:32:01;1.83;;;1.30;;
22026;SDS011;11177;50.966;10.070;2023-03-13T10:34:29;1.60;;;1.50;;
22026;SDS011;11177;50.966;10.070;2023-03-13T10:37:22;2.17;;;1.30;;
22026;SDS011;11177;50.966;10.070;2023-03-13T10:40:13;2.00;;;1.60;;
22026;SDS011;11177;50.966;10.070;2023-03-13T10:42:48;3.85;;;1.58;;
22026;SDS011;11177;50.966;10.070;2023-03-13T10:45:17;2.13;;;1.50;;
22026;SDS011;11177;50.966;10.070;2023-03-13T10:47:55;4.07;;;1.60;;
22026;SDS011;11177;50.966;10.070;2023-03-13T10:50:26;2.80;;;1.50;;
22026;SDS011;11177;50.966;10.070;2023-03-13T10:52:57;3.25;;;1.60;;
22026;SDS011;11177;50.966;10.070;2023-03-13T10:55:33;1.70;;;1.60;;
22026;SDS011;11177;50.966;10.070;2023-03-13T10:58:01;4.25;;;1.88;;
22026;SDS011;11177;50.966;10.070;2023-03-13T11:00:33;1.92;;;1.60;;
22026;SDS011;11177;50.966;10.070;2023-03-13T11:03:06;2.97;;;2.00;;
22026;SDS011;11177;50.966;10.070;2023-03-13T11:05:40;2.92;;;1.63;;
22026;SDS011;11177;50.966;10.070;2023-03-13T11:08:21;3.75;;;2.00;;
22026;SDS011;11177;50.966;10.070;2023-03-13T11:10:53;2.45;;;1.83;;
22026;SDS011;11177;50.966;10.070;2023-03-13T11:13:29;2.37;;;1.70;;
22026;SDS011;11177;50.966;10.070;2023-03-13T11:18:51;3.15;;;1.80;;
22026;SDS011;11177;50.966;10.070;2023-03-13T11:21:27;3.55;;;1.63;;
22026;SDS011;11177;50.966;10.070;2023-03-13T11:24:05;4.03;;;1.90;;
22026;SDS011;11177;50.966;10.070;2023-03-13T11:26:41;4.88;;;2.40;;
22026;SDS011;11177;50.966;10.070;2023-03-13T11:29:33;3.58;;;2.03;;
22026;SDS011;11177;50.966;10.070;2023-03-13T11:32:13;5.88;;;2.55;;
22026;SDS011;11177;50.966;10.070;2023-03-13T11:34:50;4.28;;;2.58;;
22026;SDS011;11177;50.966;10.070;2023-03-13T11:37:19;6.35;;;2.78;;
22026;SDS011;11177;50.966;10.070;2023-03-13T11:39:50;5.88;;;2.30;;
22026;SDS011;11177;50.966;10.070;2023-03-13T11:45:45;5.82;;;2.00;;
22026;SDS011;11177;50.966;10.070;2023-03-13T11:54:54;4.43;;;1.95;;
22026;SDS011;11177;50.966;10.070;2023-03-13T11:57:42;3.35;;;1.90;;
22026;SDS011;11177;50.966;10.070;2023-03-13T12:03:16;3.25;;;2.25;;
22026;SDS011;11177;50.966;10.070;2023-03-13T12:06:05;3.13;;;2.53;;
22026;SDS011;11177;50.966;10.070;2023-03-13T12:08:47;4.50;;;2.60;;
22026;SDS011;11177;50.966;10.070;2023-03-13T12:11:23;3.20;;;2.10;;
22026;SDS011;11177;50.966;10.070;2023-03-13T12:13:55;3.17;;;1.90;;
22026;SDS011;11177;50.966;10.070;2023-03-13T12:16:28;3.22;;;1.95;;
22026;SDS011;11177;50.966;10.070;2023-03-13T12:19:00;5.65;;;2.30;;
22026;SDS011;11177;50.966;10.070;2023-03-13T12:21:29;9.68;;;2.10;;
22026;SDS011;11177;50.966;10.070;2023-03-13T12:24:03;2.83;;;2.03;;
22026;SDS011;11177;50.966;10.070;2023-03-13T12:26:43;6.72;;;2.83;;
22026;SDS011;11177;50.966;10.070;2023-03-13T12:29:19;3.85;;;2.13;;
22026;SDS011;11177;50.966;10.070;2023-03-13T12:32:18;8.68;;;2.55;;
22026;SDS011;11177;50.966;10.070;2023-03-13T12:35:25;4.13;;;2.25;;
22026;SDS011;11177;50.966;10.070;2023-03-13T12:38:07;3.47;;;2.20;;
22026;SDS011;11177;50.966;10.070;2023-03-13T12:40:40;5.40;;;2.10;;
22026;SDS011;11177;50.966;10.070;2023-03-13T12:43:21;2.67;;;1.55;;
22026;SDS011;11177;50.966;10.070;2023-03-13T12:45:53;1.83;;;1.60;;
22026;SDS011;11177;50.966;10.070;2023-03-13T12:58:27;3.17;;;2.30;;
22026;SDS011;11177;50.966;10.070;2023-03-13T13:00:56;2.92;;;1.92;;
22026;SDS011;11177;50.966;10.070;2023-03-13T13:03:32;2.20;;;1.75;;
22026;SDS011;11177;50.966;10.070;2023-03-13T13:06:06;3.43;;;2.00;;
22026;SDS011;11177;50.966;10.070;2023-03-13T13:08:47;2.63;;;1.73;;
22026;SDS011;11177;50.966;10.070;2023-03-13T13:11:47;5.53;;;2.08;;
22026;SDS011;11177;50.966;10.070;2023-03-13T13:15:02;2.90;;;1.65;;
22026;SDS011;11177;50.966;10.070;2023-03-13T13:17:25;3.05;;;1.85;;
22026;SDS011;11177;50.966;10.070;2023-03-13T13:19:55;2.65;;;1.90;;
22026;SDS011;11177;50.966;10.070;2023-03-13T13:28:22;2.13;;;1.90;;
22026;SDS011;11177;50.966;10.070;2023-03-13T13:30:53;4.00;;;3.40;;
22026;SDS011;11177;50.966;10.070;2023-03-13T13:33:34;4.82;;;2.47;;
22026;SDS011;11177;50.966;10.070;2023-03-13T13:38:55;3.20;;;2.30;;
22026;SDS011;11177;50.966;10.070;2023-03-13T13:41:23;3.50;;;2.20;;
22026;SDS011;11177;50.966;10.070;2023-03-13T13:46:47;4.13;;;2.30;;
22026;SDS011;11177;50.966;10.070;2023-03-13T13:49:18;2.17;;;1.98;;
22026;SDS011;11177;50.966;10.070;2023-03-13T13:58:13;5.15;;;2.22;;
22026;SDS011;11177;50.966;10.070;2023-03-13T14:00:44;3.50;;;2.58;;
22026;SDS011;11177;50.966;10.070;2023-03-13T14:03:46;4.90;;;2.83;;
22026;SDS011;11177;50.966;10.070;2023-03-13T14:06:15;6.82;;;3.65;;
22026;SDS011;11177;50.966;10.070;2023-03-13T14:08:44;7.15;;;3.13;;
22026;SDS011;11177;50.966;10.070;2023-03-13T14:11:22;10.20;;;5.50;;
22026;SDS011;11177;50.966;10.070;2023-03-13T14:16:37;5.25;;;3.20;;
22026;SDS011;11177;50.966;10.070;2023-03-13T14:19:04;4.32;;;3.13;;
22026;SDS011;11177;50.966;10.070;2023-03-13T14:21:31;3.97;;;3.17;;
22026;SDS011;11177;50.966;10.070;2023-03-13T14:23:58;5.40;;;3.22;;
22026;SDS011;11177;50.966;10.070;2023-03-13T14:26:26;4.53;;;3.40;;
22026;SDS011;11177;50.966;10.070;2023-03-13T14:28:58;4.90;;;2.95;;
22026;SDS011;11177;50.966;10.070;2023-03-13T14:34:02;4.00;;;2.88;;
22026;SDS011;11177;50.966;10.070;2023-03-13T14:36:30;4.03;;;2.90;;
22026;SDS011;11177;50.966;10.070;2023-03-13T14:39:16;3.53;;;2.60;;
22026;SDS011;11177;50.966;10.070;2023-03-13T14:41:47;5.03;;;3.30;;
22026;SDS011;11177;50.966;10.070;2023-03-13T14:44:19;4.45;;;2.58;;
22026;SDS011;11177;50.966;10.070;2023-03-13T14:46:49;3.75;;;2.67;;
22026;SDS011;11177;50.966;10.070;2023-03-13T14:49:23;4.47;;;2.70;;
22026;SDS011;11177;50.966;10.070;2023-03-13T14:52:34;4.00;;;2.40;;
22026;SDS011;11177;50.966;10.070;2023-03-13T14:58:24;4.70;;;2.60;;
22026;SDS011;11177;50.966;10.070;2023-03-13T15:00:55;4.05;;;2.60;;
22026;SDS011;11177;50.966;10.070;2023-03-13T15:03:28;4.15;;;2.60;;
22026;SDS011;11177;50.966;10.070;2023-03-13T15:11:41;5.18;;;3.08;;
22026;SDS011;11177;50.966;10.070;2023-03-13T15:14:31;6.80;;;3.70;;
22026;SDS011;11177;50.966;10.070;2023-03-13T15:17:12;4.93;;;3.10;;
22026;SDS011;11177;50.966;10.070;2023-03-13T15:19:52;5.60;;;3.30;;
22026;SDS011;11177;50.966;10.070;2023-03-13T15:22:24;4.68;;;2.92;;
22026;SDS011;11177;50.966;10.070;2023-03-13T15:24:56;6.50;;;3.10;;
22026;SDS011;11177;50.966;10.070;2023-03-13T15:27:32;4.07;;;2.92;;
22026;SDS011;11177;50.966;10.070;2023-03-13T15:29:59;5.40;;;3.00;;
22026;SDS011;11177;50.966;10.070;2023-03-13T15:32:26;6.60;;;3.25;;
22026;SDS011;11177;50.966;10.070;2023-03-13T15:34:54;4.82;;;3.10;;
22026;SDS011;11177;50.966;10.070;2023-03-13T15:37:24;8.00;;;3.72;;
22026;SDS011;11177;50.966;10.070;2023-03-13T15:39:52;6.93;;;3.67;;
22026;SDS011;11177;50.966;10.070;2023-03-13T15:42:19;8.38;;;3.92;;
22026;SDS011;11177;50.966;10.070;2023-03-13T15:44:46;7.05;;;3.65;;
22026;SDS011;11177;50.966;10.070;2023-03-13T15:47:20;7.35;;;4.47;;
22026;SDS011;11177;50.966;10.070;2023-03-13T15:49:47;8.60;;;4.32;;
22026;SDS011;11177;50.966;10.070;2023-03-13T15:52:20;7.05;;;4.47;;
22026;SDS011;11177;50.966;10.070;2023-03-13T15:54:48;7.85;;;4.60;;
22026;SDS011;11177;50.966;10.070;2023-03-13T15:57:17;10.48;;;5.28;;
22026;SDS011;11177;50.966;10.070;2023-03-13T15:59:47;9.80;;;5.60;;
22026;SDS011;11177;50.966;10.070;2023-03-13T16:02:15;12.65;;;6.35;;
22026;SDS011;11177;50.966;10.070;2023-03-13T16:04:43;11.77;;;6.88;;
22026;SDS011;11177;50.966;10.070;2023-03-13T16:07:11;13.40;;;8.32;;
22026;SDS011;11177;50.966;10.070;2023-03-13T16:09:39;18.52;;;8.70;;